Londrina, Londrina Airport (SBLO)

NameLondrina Airport
CityLondrina
CountryBrazil
ICAOSBLO
IATALDB
Altitude1867 feet
CoordinatesGoogle Map
Live Air TrafficLiveATC.net
METARSBLO 230700Z 20004KT CAVOK 15/12 Q1023
2024-07-23 07:00:00 Wind: South (200°) 2.06 m/s - Visibility: > 10000 m - Weather: CAVOK - Temperature: 15 °C - Dew point: 12 °C - Humidity: 82.4% - Pressure: 1023 hPa

Sorry, no flights used the airport in this database.